createdAt,value
2018-05-31T00:02:18.916Z,22.80
2018-05-31T00:04:46.396Z,22.70
2018-05-31T00:07:13.840Z,22.80
2018-05-31T00:09:41.311Z,22.80
2018-05-31T00:12:08.802Z,22.80
2018-05-31T00:14:36.264Z,22.60
2018-05-31T00:17:03.752Z,22.60
2018-05-31T00:19:31.245Z,22.60
2018-05-31T00:21:58.712Z,22.50
2018-05-31T00:24:26.942Z,22.40
2018-05-31T00:26:54.450Z,22.40
2018-05-31T00:29:22.698Z,22.50
2018-05-31T00:31:50.185Z,22.40
2018-05-31T00:34:18.425Z,22.40
2018-05-31T00:36:45.902Z,22.40
2018-05-31T00:39:13.387Z,22.40
2018-05-31T00:41:40.873Z,22.30
2018-05-31T00:44:08.322Z,22.20
2018-05-31T00:46:35.808Z,22.20
2018-05-31T00:49:03.314Z,22.00
2018-05-31T00:51:31.529Z,21.90
2018-05-31T00:53:58.990Z,21.80
2018-05-31T00:56:26.473Z,21.90
2018-05-31T00:58:53.993Z,21.80
2018-05-31T01:01:21.457Z,21.70
2018-05-31T01:03:48.960Z,21.60
2018-05-31T01:06:17.206Z,21.50
2018-05-31T01:08:44.668Z,21.50
2018-05-31T01:11:12.151Z,21.40
2018-05-31T01:13:39.633Z,21.40
2018-05-31T01:16:07.853Z,21.30
2018-05-31T01:18:35.330Z,21.30
2018-05-31T01:21:02.802Z,21.40
2018-05-31T01:23:31.055Z,21.20
2018-05-31T01:25:58.509Z,21.20
2018-05-31T01:28:25.976Z,21.20
2018-05-31T01:30:53.493Z,21.00
2018-05-31T01:33:20.952Z,21.00
2018-05-31T01:35:48.428Z,20.90
2018-05-31T01:38:27.716Z,20.90
2018-05-31T01:40:55.948Z,20.90
2018-05-31T01:43:23.431Z,20.90
2018-05-31T01:45:51.695Z,20.80
2018-05-31T01:48:19.182Z,20.80
2018-05-31T01:50:47.409Z,20.80
2018-05-31T01:53:14.890Z,20.80
2018-05-31T01:55:42.337Z,20.70
2018-05-31T01:58:09.793Z,20.70
2018-05-31T02:00:37.264Z,20.60
2018-05-31T02:03:04.729Z,20.50
2018-05-31T02:05:32.959Z,20.60
2018-05-31T02:08:00.417Z,20.60
2018-05-31T02:10:27.896Z,20.50
2018-05-31T02:12:55.348Z,20.50
2018-05-31T02:15:22.836Z,20.50
2018-05-31T02:17:51.058Z,20.30
2018-05-31T02:20:18.522Z,20.20
2018-05-31T02:22:46.032Z,20.30
2018-05-31T02:25:14.248Z,20.20
2018-05-31T02:27:41.760Z,20.20
2018-05-31T02:30:09.206Z,20.30
2018-05-31T02:32:36.669Z,20.30
2018-05-31T02:35:04.949Z,20.30
2018-05-31T02:37:33.174Z,20.20
2018-05-31T02:40:00.661Z,20.20
2018-05-31T02:42:28.148Z,20.20
2018-05-31T02:44:56.383Z,20.00
2018-05-31T02:47:23.840Z,20.00
2018-05-31T02:49:51.314Z,20.00
2018-05-31T02:52:18.813Z,20.00
2018-05-31T02:54:46.313Z,20.00
2018-05-31T02:57:13.765Z,19.90
2018-05-31T02:59:41.253Z,19.90
2018-05-31T03:02:08.723Z,19.80
2018-05-31T03:04:36.936Z,19.80
2018-05-31T03:07:04.424Z,19.80
2018-05-31T03:09:31.901Z,19.80
2018-05-31T03:11:59.386Z,19.70
2018-05-31T03:14:27.624Z,19.70
2018-05-31T03:16:55.078Z,19.70
2018-05-31T03:19:22.580Z,19.70
2018-05-31T03:21:50.057Z,19.60
2018-05-31T03:24:17.491Z,19.60
2018-05-31T03:26:45.862Z,19.60
2018-05-31T03:29:14.101Z,19.60
2018-05-31T03:31:41.594Z,19.50
2018-05-31T03:34:09.847Z,19.40
2018-05-31T03:36:37.300Z,19.40
2018-05-31T03:39:04.788Z,19.40
2018-05-31T03:41:33.008Z,19.40
2018-05-31T03:44:00.457Z,19.30
2018-05-31T03:46:27.942Z,19.40
2018-05-31T03:48:55.401Z,19.40
2018-05-31T03:51:22.893Z,19.40
2018-05-31T03:53:51.145Z,19.20
2018-05-31T03:56:18.596Z,19.10
2018-05-31T03:58:46.082Z,19.20
2018-05-31T04:01:14.304Z,19.20
2018-05-31T04:03:41.769Z,19.20
2018-05-31T04:06:09.230Z,19.20
2018-05-31T04:08:36.704Z,19.20
2018-05-31T04:11:04.166Z,19.20
2018-05-31T04:13:31.630Z,19.20
2018-05-31T04:15:59.081Z,19.20
2018-05-31T04:18:26.548Z,19.30
2018-05-31T04:20:53.998Z,19.40
2018-05-31T04:23:21.474Z,19.30
2018-05-31T04:25:49.747Z,19.30
2018-05-31T04:28:17.212Z,19.30
2018-05-31T04:30:45.490Z,19.40
2018-05-31T04:33:13.762Z,19.40
2018-05-31T04:35:41.989Z,19.40
2018-05-31T04:38:09.477Z,19.40
2018-05-31T04:40:36.942Z,19.40
2018-05-31T04:43:04.407Z,19.50
2018-05-31T04:45:31.980Z,19.50
2018-05-31T04:47:59.458Z,19.60
2018-05-31T04:50:26.951Z,19.60
2018-05-31T04:52:54.489Z,19.70
2018-05-31T04:55:21.945Z,19.70
2018-05-31T04:57:49.411Z,19.70
2018-05-31T05:00:16.888Z,19.70
2018-05-31T05:02:44.349Z,19.70
2018-05-31T05:05:11.810Z,19.70
2018-05-31T05:07:39.291Z,19.70
2018-05-31T05:10:07.526Z,19.70
2018-05-31T05:12:34.996Z,19.70
2018-05-31T05:15:02.445Z,19.60
2018-05-31T05:17:29.944Z,19.70
2018-05-31T05:19:58.153Z,19.80
2018-05-31T05:22:25.637Z,19.80
2018-05-31T05:24:53.120Z,19.90
2018-05-31T05:27:21.341Z,20.00
2018-05-31T05:29:49.610Z,20.00
2018-05-31T05:32:17.068Z,20.00
2018-05-31T05:34:44.524Z,20.10
2018-05-31T05:37:11.982Z,20.10
2018-05-31T05:39:39.455Z,20.10
2018-05-31T05:42:06.949Z,20.10
2018-05-31T05:44:34.404Z,20.20
2018-05-31T05:47:01.968Z,20.10
2018-05-31T05:49:29.432Z,20.20
2018-05-31T05:51:57.647Z,20.20
2018-05-31T05:54:25.118Z,20.20
2018-05-31T05:56:52.585Z,20.30
2018-05-31T05:59:20.028Z,20.30
2018-05-31T06:01:47.511Z,20.40
2018-05-31T06:04:15.002Z,20.50
2018-05-31T06:06:43.213Z,20.60
2018-05-31T06:09:10.829Z,20.60
2018-05-31T06:11:38.281Z,20.70
2018-05-31T06:14:05.743Z,20.70
2018-05-31T06:16:33.210Z,20.70
2018-05-31T06:19:00.708Z,20.90
2018-05-31T06:21:28.155Z,20.90
2018-05-31T06:23:55.601Z,20.90
2018-05-31T06:26:23.121Z,21.00
2018-05-31T06:28:50.534Z,21.00
2018-05-31T06:31:18.001Z,21.10
2018-05-31T06:33:45.484Z,21.10
2018-05-31T06:36:13.004Z,21.20
2018-05-31T06:38:40.463Z,21.30
2018-05-31T06:41:07.917Z,21.30
2018-05-31T06:43:35.490Z,21.40
2018-05-31T06:46:02.941Z,21.40
2018-05-31T06:48:30.396Z,21.50
2018-05-31T06:50:57.859Z,21.70
2018-05-31T06:53:25.324Z,21.60
2018-05-31T06:55:52.829Z,21.70
2018-05-31T06:58:21.070Z,21.80
2018-05-31T07:00:48.564Z,21.80
2018-05-31T07:03:16.006Z,21.90
2018-05-31T07:05:43.462Z,21.90
2018-05-31T07:08:10.949Z,22.10
2018-05-31T07:10:38.432Z,22.00
2018-05-31T07:13:05.890Z,22.10
2018-05-31T07:15:34.122Z,22.10
2018-05-31T07:18:01.581Z,22.10
2018-05-31T07:20:29.798Z,22.30
2018-05-31T07:22:57.364Z,22.30
2018-05-31T07:25:24.819Z,22.40
2018-05-31T07:27:52.269Z,22.50
2018-05-31T07:30:19.744Z,22.20
2018-05-31T07:32:47.197Z,22.30
2018-05-31T07:35:14.688Z,22.40
2018-05-31T07:37:42.148Z,22.50
2018-05-31T07:40:09.615Z,22.50
2018-05-31T07:42:37.830Z,22.50
2018-05-31T07:45:05.306Z,22.50
2018-05-31T07:47:32.775Z,22.70
2018-05-31T07:50:00.256Z,22.60
2018-05-31T07:52:27.708Z,22.80
2018-05-31T07:54:55.185Z,22.90
2018-05-31T07:57:22.636Z,23.00
2018-05-31T07:59:50.928Z,23.00
2018-05-31T08:02:19.169Z,23.10
2018-05-31T08:04:46.628Z,23.10
2018-05-31T08:07:14.073Z,23.00
2018-05-31T08:09:41.549Z,23.10
2018-05-31T08:12:09.020Z,23.20
2018-05-31T08:14:37.264Z,23.00
2018-05-31T08:17:04.709Z,23.00
2018-05-31T08:19:32.187Z,23.00
2018-05-31T08:21:59.653Z,22.80
2018-05-31T08:24:27.212Z,22.70
2018-05-31T08:26:54.678Z,22.80
2018-05-31T08:29:22.149Z,22.90
2018-05-31T08:31:49.622Z,22.90
2018-05-31T08:34:17.111Z,22.90
2018-05-31T08:36:44.564Z,23.00
2018-05-31T08:39:12.040Z,23.30
2018-05-31T08:41:39.560Z,23.50
2018-05-31T08:44:07.049Z,23.60
2018-05-31T08:46:34.536Z,23.80
2018-05-31T08:49:02.095Z,23.80
2018-05-31T08:51:29.572Z,23.80
2018-05-31T08:53:57.791Z,24.10
2018-05-31T08:56:25.274Z,24.00
2018-05-31T08:58:52.728Z,24.00
2018-05-31T09:01:20.236Z,24.10
2018-05-31T09:03:47.693Z,24.20
2018-05-31T09:06:15.197Z,24.30
2018-05-31T09:08:42.676Z,24.30
2018-05-31T09:11:10.177Z,24.40
2018-05-31T09:13:37.690Z,24.40
2018-05-31T09:16:05.156Z,24.70
2018-05-31T09:18:32.623Z,24.50
2018-05-31T09:21:00.881Z,24.50
2018-05-31T09:23:28.362Z,24.50
2018-05-31T09:25:56.589Z,24.70
2018-05-31T09:28:24.061Z,24.70
2018-05-31T09:30:51.547Z,24.80
2018-05-31T09:33:19.767Z,24.80
2018-05-31T09:35:47.240Z,24.80
2018-05-31T09:38:14.684Z,24.80
2018-05-31T09:40:42.157Z,24.70
2018-05-31T09:43:09.609Z,24.70
2018-05-31T09:45:37.084Z,24.60
2018-05-31T09:48:04.529Z,24.70
2018-05-31T09:50:32.014Z,24.60
2018-05-31T09:52:59.481Z,24.70
2018-05-31T09:55:27.695Z,25.10
2018-05-31T09:57:55.172Z,25.10
2018-05-31T10:00:22.631Z,25.30
2018-05-31T10:02:50.126Z,25.50
2018-05-31T10:05:18.378Z,25.80
2018-05-31T10:07:45.855Z,25.80
2018-05-31T10:10:14.086Z,26.20
2018-05-31T10:12:42.325Z,26.50
2018-05-31T10:15:09.798Z,26.50
2018-05-31T10:17:38.030Z,26.80
2018-05-31T10:20:05.517Z,26.80
2018-05-31T10:22:33.745Z,26.50
2018-05-31T10:25:01.215Z,26.50
2018-05-31T10:27:28.695Z,26.60
2018-05-31T10:29:56.947Z,26.90
2018-05-31T10:32:24.400Z,26.90
2018-05-31T10:34:51.902Z,27.20
2018-05-31T10:37:20.116Z,27.90
2018-05-31T10:39:47.580Z,27.80
2018-05-31T10:42:15.100Z,28.40
2018-05-31T10:44:42.580Z,28.20
2018-05-31T10:47:10.070Z,27.80
2018-05-31T10:49:37.567Z,28.30
2018-05-31T10:52:05.035Z,28.40
2018-05-31T10:54:32.517Z,28.90
2018-05-31T10:57:00.002Z,29.40
2018-05-31T10:59:27.481Z,29.80
2018-05-31T11:01:55.724Z,28.90
2018-05-31T11:04:23.217Z,28.90
2018-05-31T11:06:50.680Z,28.90
2018-05-31T11:09:18.964Z,29.10
2018-05-31T11:11:46.476Z,29.10
2018-05-31T11:14:13.941Z,29.30
2018-05-31T11:16:41.445Z,29.90
2018-05-31T11:19:08.953Z,29.70
2018-05-31T11:21:36.431Z,30.00
2018-05-31T11:24:03.902Z,30.50
2018-05-31T11:26:32.163Z,30.10
2018-05-31T11:28:59.641Z,30.10
2018-05-31T11:31:27.125Z,29.80
2018-05-31T11:33:54.629Z,30.00
2018-05-31T11:36:22.088Z,30.00
2018-05-31T11:38:49.557Z,30.10
2018-05-31T11:41:17.061Z,30.10
2018-05-31T11:43:44.521Z,30.30
2018-05-31T11:46:11.987Z,30.10
2018-05-31T11:48:39.480Z,29.70
2018-05-31T11:51:06.940Z,29.80
2018-05-31T11:53:34.421Z,29.90
2018-05-31T11:56:01.898Z,29.90
2018-05-31T11:58:29.393Z,29.60
2018-05-31T12:00:56.848Z,30.00
2018-05-31T12:03:24.333Z,30.30
2018-05-31T12:05:51.796Z,30.70
2018-05-31T12:08:19.318Z,30.70
2018-05-31T12:10:46.758Z,30.70
2018-05-31T12:13:14.213Z,31.50
2018-05-31T12:15:41.673Z,31.40
2018-05-31T12:18:09.165Z,31.30
2018-05-31T12:20:36.646Z,31.00
2018-05-31T12:23:04.870Z,30.50
2018-05-31T12:25:32.374Z,30.50
2018-05-31T12:27:59.806Z,30.30
2018-05-31T12:30:27.319Z,30.10
2018-05-31T12:32:54.788Z,29.90
2018-05-31T12:35:22.296Z,29.40
2018-05-31T12:37:49.792Z,29.30
2018-05-31T12:40:17.238Z,29.30
2018-05-31T12:42:44.765Z,29.10
2018-05-31T12:45:12.220Z,29.30
2018-05-31T12:47:39.740Z,29.70
2018-05-31T12:50:07.210Z,30.40
2018-05-31T12:52:34.747Z,31.00
2018-05-31T12:55:02.272Z,31.40
2018-05-31T12:57:30.532Z,32.10
2018-05-31T12:59:57.980Z,32.00
2018-05-31T13:02:25.507Z,31.80
2018-05-31T13:04:52.993Z,31.50
2018-05-31T13:07:20.465Z,30.70
2018-05-31T13:09:48.735Z,29.80
2018-05-31T13:12:16.196Z,29.80
2018-05-31T13:14:43.685Z,29.50
2018-05-31T13:17:11.167Z,29.30
2018-05-31T13:19:38.659Z,29.20
2018-05-31T13:22:06.137Z,29.20
2018-05-31T13:24:33.626Z,28.80
2018-05-31T13:27:01.134Z,28.50
2018-05-31T13:29:28.592Z,28.40
2018-05-31T13:31:56.056Z,28.20
2018-05-31T13:34:23.538Z,28.00
2018-05-31T13:36:52.000Z,27.90
2018-05-31T13:39:19.487Z,27.80
2018-05-31T13:41:47.030Z,27.70
2018-05-31T13:44:15.262Z,27.20
2018-05-31T13:46:42.767Z,27.20
2018-05-31T13:49:11.055Z,27.20
2018-05-31T13:54:23.066Z,27.10
2018-05-31T13:56:51.330Z,27.00
2018-05-31T13:59:18.791Z,26.90
2018-05-31T14:01:47.100Z,27.00
2018-05-31T14:04:14.536Z,27.00
2018-05-31T14:06:42.001Z,27.00
2018-05-31T14:09:09.492Z,26.90
2018-05-31T14:11:36.991Z,26.90
2018-05-31T14:14:04.499Z,27.00
2018-05-31T14:16:31.981Z,27.10
2018-05-31T14:18:59.503Z,27.00
2018-05-31T14:21:26.996Z,27.20
2018-05-31T14:23:54.499Z,27.90
2018-05-31T14:26:21.988Z,28.50
2018-05-31T14:28:49.466Z,29.60
2018-05-31T14:31:16.954Z,30.40
2018-05-31T14:33:44.464Z,31.10
2018-05-31T14:36:11.982Z,31.80
2018-05-31T14:38:40.851Z,32.70
2018-05-31T14:41:08.349Z,32.70
2018-05-31T14:43:35.809Z,31.80
2018-05-31T14:46:03.288Z,31.20
2018-05-31T14:48:30.781Z,31.60
2018-05-31T14:50:58.236Z,32.20
2018-05-31T14:53:30.193Z,32.40
2018-05-31T14:55:57.664Z,32.30
2018-05-31T14:58:25.161Z,32.10
2018-05-31T15:00:52.624Z,31.80
2018-05-31T15:03:20.160Z,31.90
2018-05-31T15:05:48.403Z,32.90
2018-05-31T15:08:15.857Z,32.80
2018-05-31T15:10:43.318Z,33.30
2018-05-31T15:13:10.789Z,33.00
2018-05-31T15:15:38.467Z,31.70
2018-05-31T15:18:06.002Z,30.90
2018-05-31T15:20:33.658Z,30.90
2018-05-31T15:23:01.174Z,31.20
2018-05-31T15:25:28.650Z,31.30
2018-05-31T15:27:56.152Z,31.10
2018-05-31T15:30:23.613Z,31.00
2018-05-31T15:32:51.869Z,31.80
2018-05-31T15:35:19.337Z,31.80
2018-05-31T15:37:46.825Z,32.80
2018-05-31T15:40:14.300Z,33.30
2018-05-31T15:42:41.807Z,33.30
2018-05-31T15:45:09.345Z,31.70
2018-05-31T15:47:36.838Z,30.90
2018-05-31T15:50:05.123Z,31.80
2018-05-31T15:52:33.347Z,31.60
2018-05-31T15:55:00.842Z,31.60
2018-05-31T15:57:28.307Z,31.60
2018-05-31T15:59:56.561Z,32.60
2018-05-31T16:02:24.029Z,32.60
2018-05-31T16:04:51.513Z,33.00
2018-05-31T16:07:18.993Z,32.90
2018-05-31T16:09:46.448Z,33.30
2018-05-31T16:12:13.926Z,33.50
2018-05-31T16:14:41.385Z,33.70
2018-05-31T16:17:08.865Z,33.90
2018-05-31T16:19:36.333Z,33.90
2018-05-31T16:22:03.793Z,34.20
2018-05-31T16:24:31.277Z,34.10
2018-05-31T16:26:58.780Z,33.50
2018-05-31T16:29:26.343Z,33.40
2018-05-31T16:31:54.107Z,33.50
2018-05-31T16:34:21.655Z,32.80
2018-05-31T16:36:49.164Z,33.30
2018-05-31T16:39:17.395Z,32.10
2018-05-31T16:41:44.874Z,32.00
2018-05-31T16:44:12.355Z,30.60
2018-05-31T16:46:40.618Z,31.60
2018-05-31T16:49:08.124Z,31.60
2018-05-31T16:51:35.622Z,32.10
2018-05-31T16:54:03.116Z,32.40
2018-05-31T16:56:30.629Z,32.60
2018-05-31T16:58:58.072Z,32.40
2018-05-31T17:01:25.787Z,32.70
2018-05-31T17:03:55.438Z,32.70
2018-05-31T17:06:22.913Z,32.70
2018-05-31T17:08:50.394Z,32.10
2018-05-31T17:11:17.913Z,31.80
2018-05-31T17:13:45.432Z,31.80
2018-05-31T17:16:13.691Z,31.50
2018-05-31T17:18:41.937Z,31.60
2018-05-31T17:21:09.427Z,31.60
2018-05-31T17:23:36.874Z,32.20
2018-05-31T17:26:04.737Z,32.10
2018-05-31T17:28:32.449Z,31.10
2018-05-31T17:31:00.305Z,30.90
2018-05-31T17:33:27.807Z,31.20
2018-05-31T17:35:55.249Z,30.50
2018-05-31T17:38:22.913Z,30.50
2018-05-31T17:40:50.837Z,30.70
2018-05-31T17:43:18.364Z,30.80
2018-05-31T17:45:45.857Z,30.60
2018-05-31T17:48:14.070Z,29.50
2018-05-31T17:50:42.441Z,29.60
2018-05-31T17:53:11.162Z,29.10
2018-05-31T17:55:38.689Z,29.10
2018-05-31T17:58:06.198Z,28.60
2018-05-31T18:00:33.743Z,28.40
2018-05-31T18:03:01.697Z,28.40
2018-05-31T18:05:29.701Z,28.50
2018-05-31T18:07:57.200Z,28.40
2018-05-31T18:10:25.465Z,28.10
2018-05-31T18:12:53.323Z,28.10
2018-05-31T18:15:21.912Z,28.50
2018-05-31T18:17:49.436Z,28.50
2018-05-31T18:20:16.965Z,28.80
2018-05-31T18:22:45.505Z,28.80
2018-05-31T18:25:13.803Z,28.90
2018-05-31T18:27:41.355Z,28.90
2018-05-31T18:30:08.909Z,28.90
2018-05-31T18:32:36.457Z,28.80
2018-05-31T18:35:04.333Z,28.60
2018-05-31T18:37:31.930Z,28.30
2018-05-31T18:39:59.398Z,28.00
2018-05-31T18:42:27.392Z,27.70
2018-05-31T18:44:55.885Z,27.40
2018-05-31T18:47:24.659Z,27.30
2018-05-31T18:49:52.477Z,27.30
2018-05-31T18:52:20.129Z,27.10
2018-05-31T18:54:47.613Z,26.90
2018-05-31T18:57:15.213Z,26.70
2018-05-31T18:59:43.980Z,26.70
2018-05-31T19:02:12.024Z,26.70
2018-05-31T19:04:39.550Z,26.60
2018-05-31T19:07:07.116Z,26.60
2018-05-31T19:09:36.626Z,26.50
2018-05-31T19:12:04.404Z,26.40
2018-05-31T19:14:32.123Z,26.30
2018-05-31T19:16:59.620Z,26.10
2018-05-31T19:19:32.919Z,26.00
2018-05-31T19:22:00.566Z,25.90
2018-05-31T19:24:34.128Z,25.80
2018-05-31T19:27:02.383Z,25.70
2018-05-31T19:29:29.851Z,25.70
2018-05-31T19:31:57.348Z,25.70
2018-05-31T19:34:25.614Z,25.60
2018-05-31T19:36:59.163Z,25.60
2018-05-31T19:39:26.682Z,25.50
2018-05-31T19:41:54.253Z,25.50
2018-05-31T19:44:27.713Z,25.50
2018-05-31T19:46:55.309Z,25.40
2018-05-31T19:49:23.708Z,25.20
2018-05-31T19:51:56.956Z,25.20
2018-05-31T19:54:25.219Z,25.10
2018-05-31T19:56:52.702Z,25.10
2018-05-31T19:59:26.538Z,25.20
2018-05-31T20:01:59.796Z,25.20
2018-05-31T20:04:27.416Z,25.30
2018-05-31T20:06:54.909Z,25.20
2018-05-31T20:09:22.429Z,25.10
2018-05-31T20:11:50.327Z,25.10
2018-05-31T20:14:17.824Z,25.10
2018-05-31T20:16:45.364Z,25.20
2018-05-31T20:19:14.032Z,25.20
2018-05-31T20:21:41.550Z,25.20
2018-05-31T20:24:09.048Z,25.20
2018-05-31T20:26:36.609Z,25.20
2018-05-31T20:29:04.399Z,25.10
2018-05-31T20:31:31.956Z,25.00
2018-05-31T20:34:00.204Z,24.90
2018-05-31T20:36:27.653Z,24.90
2018-05-31T20:38:55.623Z,24.90
2018-05-31T20:41:23.581Z,24.90
2018-05-31T20:43:51.104Z,24.80
2018-05-31T20:46:18.609Z,24.80
2018-05-31T20:48:46.336Z,24.70
2018-05-31T20:51:14.205Z,24.80
2018-05-31T20:53:42.707Z,24.70
2018-05-31T20:56:10.201Z,24.60
2018-05-31T20:58:37.653Z,24.60
2018-05-31T21:01:05.119Z,24.50
2018-05-31T21:03:33.348Z,24.40
2018-05-31T21:06:00.841Z,24.40
2018-05-31T21:08:28.365Z,24.40
2018-05-31T21:10:56.580Z,24.30
2018-05-31T21:13:24.850Z,24.30
2018-05-31T21:15:52.321Z,24.30
2018-05-31T21:18:20.553Z,24.20
2018-05-31T21:20:48.022Z,24.20
2018-05-31T21:23:15.510Z,24.20
2018-05-31T21:25:43.786Z,24.00
2018-05-31T21:28:12.025Z,24.00
2018-05-31T21:30:39.520Z,23.90
2018-05-31T21:33:07.773Z,24.00
2018-05-31T21:35:35.277Z,24.00
2018-05-31T21:38:02.751Z,23.90
2018-05-31T21:40:30.231Z,23.60
2018-05-31T21:42:57.689Z,23.40
2018-05-31T21:45:25.186Z,22.90
2018-05-31T21:47:53.405Z,22.10
2018-05-31T21:50:20.908Z,22.10
2018-05-31T21:52:48.373Z,21.70
2018-05-31T21:55:15.874Z,21.60
2018-05-31T21:57:43.333Z,21.30
2018-05-31T22:00:41.211Z,21.20
2018-05-31T22:03:08.698Z,21.00
2018-05-31T22:05:36.175Z,20.60
2018-05-31T22:08:03.633Z,20.30
2018-05-31T22:10:31.914Z,20.20
2018-05-31T22:13:00.183Z,20.00
2018-05-31T22:15:27.653Z,19.90
2018-05-31T22:17:55.888Z,19.60
2018-05-31T22:20:23.383Z,19.60
2018-05-31T22:22:51.622Z,19.60
2018-05-31T22:25:19.147Z,19.60
2018-05-31T22:27:46.641Z,19.50
2018-05-31T22:30:14.134Z,19.50
2018-05-31T22:32:42.385Z,19.30
2018-05-31T22:35:09.896Z,19.30
2018-05-31T22:37:37.363Z,19.20
2018-05-31T22:40:04.858Z,19.20
2018-05-31T22:42:32.316Z,19.20
2018-05-31T22:44:59.761Z,19.30
2018-05-31T22:47:27.251Z,19.20
2018-05-31T22:49:54.719Z,19.10
2018-05-31T22:52:22.937Z,18.70
2018-05-31T22:54:50.431Z,18.70
2018-05-31T22:57:17.893Z,18.60
2018-05-31T22:59:45.368Z,18.60
2018-05-31T23:02:13.626Z,18.70
2018-05-31T23:04:41.097Z,18.60
2018-05-31T23:07:08.587Z,18.60
2018-05-31T23:09:36.077Z,18.70
2018-05-31T23:12:03.545Z,18.70
2018-05-31T23:14:31.045Z,18.70
2018-05-31T23:16:58.557Z,18.50
2018-05-31T23:19:26.044Z,18.50
2018-05-31T23:21:54.282Z,18.50
2018-05-31T23:24:21.766Z,18.50
2018-05-31T23:26:49.226Z,18.50
2018-05-31T23:29:16.679Z,18.50
2018-05-31T23:31:44.149Z,18.50
2018-05-31T23:34:12.389Z,18.50
2018-05-31T23:36:39.878Z,18.50
2018-05-31T23:39:08.126Z,18.50
2018-05-31T23:41:35.576Z,18.50
2018-05-31T23:44:03.080Z,18.60
2018-05-31T23:46:31.331Z,18.60
2018-05-31T23:48:58.828Z,18.60
2018-05-31T23:51:26.285Z,18.50
2018-05-31T23:53:53.769Z,18.50
2018-05-31T23:56:21.213Z,18.50
2018-05-31T23:58:48.703Z,18.50
